Time;durP1;ratioP1;P1;durP2;ratioP2;P2;SDS_P1;SDS_P2;PMS_P1;PMS_P2;Temp;Humidity;BMP_temperature;BMP_pressure;BME280_temperature;BME280_humidity;BME280_pressure;Samples;Min_cycle;Max_cycle;Signal;HPM_P1;HPM_P2
2023/12/31 00:01:11;;;;;;;36.08;26.10;;;;;;;5.08;100.00;100042.91;4877973;29;20506;-72
2023/12/31 00:03:37;;;;;;;38.10;26.85;;;;;;;5.05;100.00;100049.19;4877977;29;20067;-71
2023/12/31 00:06:02;;;;;;;31.98;24.63;;;;;;;4.92;100.00;100056.97;4877923;29;20048;-70
2023/12/31 00:08:28;;;;;;;37.17;26.75;;;;;;;4.83;100.00;100056.69;4877657;29;20093;-70
2023/12/31 00:10:53;;;;;;;41.20;27.00;;;;;;;4.80;100.00;100055.09;4878039;29;20033;-71
2023/12/31 00:13:18;;;;;;;39.88;26.98;;;;;;;4.83;100.00;100049.66;4877647;29;20036;-71
2023/12/31 00:15:44;;;;;;;36.97;26.50;;;;;;;4.90;100.00;100048.38;4878032;29;20043;-71
2023/12/31 00:18:09;;;;;;;39.65;25.95;;;;;;;4.97;100.00;100046.22;4873627;29;20037;-71
2023/12/31 00:20:35;;;;;;;37.55;25.35;;;;;;;5.03;100.00;100042.38;4877336;29;20040;-71
2023/12/31 00:23:00;;;;;;;34.72;25.63;;;;;;;5.15;100.00;100037.22;4877632;29;20044;-71
2023/12/31 00:25:26;;;;;;;36.22;25.45;;;;;;;5.19;100.00;100043.91;4877402;29;20968;-71
2023/12/31 00:27:51;;;;;;;35.08;25.90;;;;;;;5.13;100.00;100036.47;4878507;29;20093;-71
2023/12/31 00:30:17;;;;;;;39.55;26.85;;;;;;;5.13;100.00;100031.22;4875410;29;20041;-71
2023/12/31 00:32:42;;;;;;;39.45;27.25;;;;;;;5.16;100.00;100024.97;4882534;29;20041;-72
2023/12/31 00:35:08;;;;;;;41.10;26.52;;;;;;;5.22;100.00;100025.44;4876179;29;20064;-72
2023/12/31 00:37:33;;;;;;;39.28;26.90;;;;;;;5.32;100.00;100031.75;4877693;29;20037;-70
2023/12/31 00:39:59;;;;;;;42.50;27.65;;;;;;;5.39;100.00;100026.97;4879486;29;20085;-71
2023/12/31 00:42:24;;;;;;;41.13;28.88;;;;;;;5.40;100.00;100019.94;4877164;29;20387;-71
2023/12/31 00:44:50;;;;;;;43.05;28.23;;;;;;;5.31;100.00;100019.59;4877089;29;20037;-72
2023/12/31 00:47:15;;;;;;;42.78;29.38;;;;;;;5.23;100.00;100027.13;4877037;29;20399;-72
2023/12/31 00:49:40;;;;;;;40.50;29.13;;;;;;;5.18;100.00;100026.56;4877352;29;20072;-72
2023/12/31 00:52:06;;;;;;;40.53;29.65;;;;;;;5.16;100.00;100031.03;4876624;29;20033;-72
2023/12/31 00:54:32;;;;;;;46.97;31.08;;;;;;;5.10;100.00;100020.97;4871598;29;20189;-71
2023/12/31 00:56:58;;;;;;;46.65;29.20;;;;;;;5.14;100.00;100019.84;4877075;29;20053;-72
2023/12/31 00:59:24;;;;;;;42.80;31.02;;;;;;;5.24;100.00;100020.91;4876840;29;20092;-71
2023/12/31 01:01:50;;;;;;;42.33;29.20;;;;;;;5.33;100.00;100017.72;4877352;29;20041;-71
2023/12/31 01:04:16;;;;;;;44.85;28.80;;;;;;;5.36;100.00;100009.66;4891041;29;20045;-71
2023/12/31 01:06:42;;;;;;;43.88;28.95;;;;;;;5.41;100.00;100008.56;4876748;29;20524;-71
2023/12/31 01:09:07;;;;;;;43.47;30.75;;;;;;;5.39;100.00;99999.94;4876680;29;20082;-71
2023/12/31 01:11:34;;;;;;;39.97;28.65;;;;;;;5.43;100.00;100001.41;4875473;29;20025;-71
2023/12/31 01:14:00;;;;;;;39.17;27.80;;;;;;;5.46;100.00;99996.84;4879422;29;20068;-72
2023/12/31 01:16:25;;;;;;;42.03;27.67;;;;;;;5.51;100.00;99997.38;4876276;29;20519;-72
2023/12/31 01:18:51;;;;;;;41.33;30.02;;;;;;;5.60;100.00;99994.16;4877194;29;20036;-72
2023/12/31 01:21:18;;;;;;;41.22;28.58;;;;;;;5.60;100.00;99993.31;4876553;29;20525;-71
2023/12/31 01:23:43;;;;;;;40.13;27.65;;;;;;;5.48;100.00;99984.47;4876569;29;20656;-72
2023/12/31 01:26:08;;;;;;;39.97;28.52;;;;;;;5.49;100.00;99995.78;4876306;29;20045;-72
2023/12/31 01:28:34;;;;;;;37.00;26.95;;;;;;;5.54;100.00;99988.47;4879113;29;20049;-70
2023/12/31 01:30:59;;;;;;;39.42;26.83;;;;;;;5.55;100.00;99990.16;4881644;29;20053;-71
2023/12/31 01:33:25;;;;;;;39.55;28.20;;;;;;;5.61;100.00;99987.13;4878759;29;20033;-72
2023/12/31 01:35:50;;;;;;;37.55;27.13;;;;;;;5.61;100.00;99984.50;4876609;29;20037;-70
2023/12/31 01:38:15;;;;;;;40.20;28.77;;;;;;;5.56;100.00;99983.97;4874348;29;20097;-72
2023/12/31 01:40:51;;;;;;;39.80;27.30;;;;;;;5.51;100.00;99984.28;4876431;29;20028;-72
2023/12/31 01:43:17;;;;;;;40.60;27.25;;;;;;;5.58;100.00;99979.50;4872877;29;20062;-71
2023/12/31 01:45:44;;;;;;;45.15;27.42;;;;;;;5.62;100.00;99975.72;4876377;29;20030;-72
2023/12/31 01:48:09;;;;;;;34.95;26.08;;;;;;;5.63;100.00;99982.66;4875999;29;20041;-71
2023/12/31 01:50:35;;;;;;;41.33;26.23;;;;;;;5.68;100.00;99985.78;4872668;29;20055;-71
2023/12/31 01:53:00;;;;;;;34.58;25.75;;;;;;;5.59;100.00;99986.41;4890055;29;20085;-71
2023/12/31 01:55:26;;;;;;;36.70;26.52;;;;;;;5.52;100.00;99977.28;4875307;29;20980;-71
2023/12/31 01:57:52;;;;;;;38.28;26.60;;;;;;;5.49;100.00;99986.16;4873581;29;20044;-72
2023/12/31 02:00:19;;;;;;;35.42;25.65;;;;;;;5.43;100.00;99985.72;4875071;29;20503;-71
2023/12/31 02:02:48;;;;;;;36.55;26.02;;;;;;;5.35;100.00;99994.94;4874255;29;20131;-71
2023/12/31 02:05:15;;;;;;;40.03;25.98;;;;;;;5.41;100.00;99990.22;4875474;29;20057;-71
2023/12/31 02:07:40;;;;;;;40.97;29.23;;;;;;;5.38;100.00;99972.09;4876918;29;20056;-71
2023/12/31 02:10:06;;;;;;;39.65;28.25;;;;;;;5.29;100.00;99982.25;4890352;29;20029;-71
2023/12/31 02:12:32;;;;;;;36.90;27.38;;;;;;;5.23;100.00;99980.03;4875712;29;20033;-71
2023/12/31 02:14:57;;;;;;;43.67;28.90;;;;;;;5.22;100.00;99975.72;4876219;29;20073;-72
2023/12/31 02:17:23;;;;;;;40.75;28.63;;;;;;;4.94;100.00;99967.97;4878059;29;20524;-72
2023/12/31 02:19:48;;;;;;;38.45;27.75;;;;;;;5.01;100.00;99964.00;4876169;29;20043;-72
2023/12/31 02:22:14;;;;;;;40.60;28.08;;;;;;;5.11;100.00;99959.88;4888983;29;20037;-71
2023/12/31 02:24:50;;;;;;;39.55;28.17;;;;;;;5.12;100.00;99955.47;4872417;29;20486;-72
2023/12/31 02:27:16;;;;;;;38.90;27.95;;;;;;;5.14;100.00;99962.28;4867728;29;20120;-71
2023/12/31 02:29:42;;;;;;;39.80;28.45;;;;;;;5.14;100.00;99970.13;4876245;29;20025;-71
2023/12/31 02:32:07;;;;;;;40.17;28.17;;;;;;;5.21;100.00;99966.19;4889748;29;20080;-71
2023/12/31 02:34:33;;;;;;;40.10;28.60;;;;;;;5.26;100.00;99964.09;4874775;29;20037;-72
2023/12/31 02:36:59;;;;;;;40.95;27.98;;;;;;;5.34;100.00;99959.22;4870629;29;20112;-72
2023/12/31 02:39:25;;;;;;;41.25;27.55;;;;;;;5.29;100.00;99953.47;4874165;29;20036;-72
2023/12/31 02:41:51;;;;;;;43.10;28.20;;;;;;;5.28;100.00;99951.78;4877127;29;20502;-71
2023/12/31 02:44:17;;;;;;;42.88;28.83;;;;;;;5.35;100.00;99955.69;4874867;29;20041;-71
2023/12/31 02:46:43;;;;;;;38.58;27.60;;;;;;;5.17;100.00;99943.78;4878708;29;20038;-72
2023/12/31 02:49:11;;;;;;;37.55;27.85;;;;;;;5.24;100.00;99954.69;4867617;29;20040;-71
2023/12/31 02:51:37;;;;;;;40.55;28.65;;;;;;;5.30;100.00;99955.09;4875213;29;20147;-72
2023/12/31 02:54:03;;;;;;;38.00;27.42;;;;;;;5.32;100.00;99950.63;4875204;29;20029;-71
2023/12/31 02:56:28;;;;;;;39.08;28.23;;;;;;;5.28;100.00;99951.78;4886229;29;20159;-72
2023/12/31 02:58:54;;;;;;;43.92;28.60;;;;;;;5.19;100.00;99952.34;4875342;29;20063;-72
2023/12/31 03:01:20;;;;;;;44.13;29.38;;;;;;;5.10;100.00;99942.50;4878790;29;20040;-72
2023/12/31 03:03:47;;;;;;;41.20;28.27;;;;;;;5.03;100.00;99940.38;4877924;29;20069;-72
2023/12/31 03:06:15;;;;;;;39.03;27.50;;;;;;;5.05;100.00;99939.34;4878230;29;20037;-72
2023/12/31 03:08:41;;;;;;;45.22;28.90;;;;;;;5.11;100.00;99944.19;4871948;29;20081;-72
2023/12/31 03:11:08;;;;;;;39.88;27.95;;;;;;;5.13;100.00;99944.06;4875160;29;20033;-71
2023/12/31 03:13:34;;;;;;;43.30;29.35;;;;;;;5.16;100.00;99942.09;4875171;29;20037;-71
2023/12/31 03:16:06;;;;;;;41.20;27.92;;;;;;;5.16;100.00;99929.03;4872849;29;20116;-70
2023/12/31 03:18:32;;;;;;;40.75;28.63;;;;;;;5.17;100.00;99922.84;4875502;29;20071;-71
2023/12/31 03:20:58;;;;;;;43.28;28.98;;;;;;;5.17;100.00;99917.63;4875302;29;20037;-71
2023/12/31 03:23:24;;;;;;;38.22;27.98;;;;;;;5.23;100.00;99921.63;4877100;29;20040;-72
2023/12/31 03:25:49;;;;;;;40.13;27.50;;;;;;;5.24;100.00;99913.66;4874969;29;20041;-73
2023/12/31 03:28:15;;;;;;;37.72;28.42;;;;;;;5.27;100.00;99912.63;4877068;29;20037;-72
2023/12/31 03:30:40;;;;;;;40.60;28.00;;;;;;;5.28;100.00;99894.22;4874935;29;20071;-71
2023/12/31 03:33:07;;;;;;;39.50;27.85;;;;;;;5.31;100.00;99894.00;4873166;29;20094;-71
2023/12/31 03:35:32;;;;;;;42.60;27.85;;;;;;;5.34;100.00;99891.19;4881776;29;20033;-71
2023/12/31 03:37:58;;;;;;;40.22;28.83;;;;;;;5.36;100.00;99902.38;4874786;29;20048;-72
2023/12/31 03:40:24;;;;;;;43.08;29.60;;;;;;;5.39;100.00;99895.28;4874687;29;20422;-72
2023/12/31 03:42:49;;;;;;;40.35;27.92;;;;;;;5.43;100.00;99897.56;4874940;29;20063;-72
2023/12/31 03:45:15;;;;;;;40.40;28.05;;;;;;;5.48;100.00;99894.69;4874338;29;20045;-72
2023/12/31 03:47:40;;;;;;;45.17;30.05;;;;;;;5.43;100.00;99887.09;4875125;29;20033;-72
2023/12/31 03:50:06;;;;;;;41.80;28.20;;;;;;;5.52;100.00;99883.03;4874534;29;20045;-72
2023/12/31 03:52:32;;;;;;;42.33;28.10;;;;;;;5.55;100.00;99875.81;4872450;29;20048;-70
2023/12/31 03:54:58;;;;;;;37.47;28.30;;;;;;;5.57;100.00;99878.34;4879723;29;20136;-71
2023/12/31 03:57:23;;;;;;;44.85;27.42;;;;;;;5.56;100.00;99879.28;4874238;29;20045;-71
2023/12/31 03:59:49;;;;;;;40.63;27.92;;;;;;;5.61;100.00;99879.78;4878124;29;20141;-71
2023/12/31 04:02:17;;;;;;;43.88;29.13;;;;;;;5.63;100.00;99877.94;4874206;29;20191;-71
2023/12/31 04:04:42;;;;;;;38.10;27.27;;;;;;;5.65;100.00;99870.81;4871266;29;20037;-71
2023/12/31 04:07:09;;;;;;;38.55;28.25;;;;;;;5.64;100.00;99858.66;4874156;29;20400;-71
2023/12/31 04:09:35;;;;;;;40.35;28.08;;;;;;;5.60;100.00;99865.88;4874471;29;20037;-71
2023/12/31 04:12:04;;;;;;;38.40;28.13;;;;;;;5.59;100.00;99860.75;4872264;29;20044;-71
2023/12/31 04:14:30;;;;;;;43.83;28.08;;;;;;;5.61;100.00;99864.94;4875110;29;20031;-72
2023/12/31 04:16:56;;;;;;;38.92;28.70;;;;;;;5.63;100.00;99863.06;4891790;29;20112;-72
2023/12/31 04:19:21;;;;;;;44.72;29.23;;;;;;;5.58;100.00;99859.91;4877510;29;20037;-72
2023/12/31 04:21:47;;;;;;;40.47;27.60;;;;;;;5.54;100.00;99862.81;4876378;29;20025;-71
2023/12/31 04:24:12;;;;;;;44.97;29.27;;;;;;;5.54;100.00;99857.59;4877032;29;20498;-72
2023/12/31 04:26:42;;;;;;;39.22;28.40;;;;;;;5.56;100.00;99845.25;4877639;29;20044;-71
2023/12/31 04:29:09;;;;;;;38.80;29.30;;;;;;;5.58;100.00;99848.59;4877750;29;20037;-71
2023/12/31 04:31:43;;;;;;;38.83;27.80;;;;;;;5.59;100.00;99839.81;4887726;29;20041;-70
2023/12/31 04:34:09;;;;;;;36.25;26.58;;;;;;;5.60;100.00;99841.47;4881849;29;20037;-70
2023/12/31 04:36:35;;;;;;;40.92;27.05;;;;;;;5.54;100.00;99839.25;4876976;29;20509;-71
2023/12/31 04:39:00;;;;;;;43.88;27.25;;;;;;;5.44;100.00;99835.59;4877129;29;20041;-71
2023/12/31 04:41:25;;;;;;;38.38;28.30;;;;;;;5.35;100.00;99829.22;4877158;29;20113;-72
2023/12/31 04:43:51;;;;;;;38.28;28.67;;;;;;;5.29;100.00;99827.84;4877370;29;20123;-72
2023/12/31 04:46:20;;;;;;;41.83;28.45;;;;;;;5.26;100.00;99833.28;4876925;29;20079;-72
2023/12/31 04:48:46;;;;;;;38.60;27.92;;;;;;;5.27;100.00;99834.97;4877123;29;20029;-72
2023/12/31 04:51:29;;;;;;;41.72;28.65;;;;;;;5.29;100.00;99846.19;4880009;29;20033;-72
2023/12/31 04:53:56;;;;;;;40.13;28.27;;;;;;;5.25;100.00;99842.06;4864903;29;20112;-72
2023/12/31 04:56:23;;;;;;;45.28;30.30;;;;;;;5.24;100.00;99842.19;4872980;29;20053;-72
2023/12/31 04:58:50;;;;;;;42.75;28.00;;;;;;;5.08;100.00;99844.97;4877156;29;20112;-72
2023/12/31 05:01:16;;;;;;;41.42;29.30;;;;;;;5.17;100.00;99841.75;4879714;29;20495;-72
2023/12/31 05:03:42;;;;;;;43.42;28.55;;;;;;;5.20;100.00;99833.69;4875096;29;20572;-72
2023/12/31 05:06:09;;;;;;;43.72;28.63;;;;;;;5.17;100.00;99822.59;4876353;29;20033;-71
2023/12/31 05:08:35;;;;;;;41.72;28.13;;;;;;;5.17;100.00;99820.81;4872569;29;20566;-71
2023/12/31 05:11:00;;;;;;;41.90;26.85;;;;;;;5.17;100.00;99823.44;4876597;29;20109;-70
2023/12/31 05:13:26;;;;;;;42.42;28.00;;;;;;;5.21;100.00;99811.81;4876731;29;20140;-72
2023/12/31 05:15:51;;;;;;;41.08;28.75;;;;;;;5.21;100.00;99809.22;4876526;29;20546;-71
2023/12/31 05:18:17;;;;;;;38.22;27.52;;;;;;;5.24;100.00;99809.00;4876026;29;20037;-71
2023/12/31 05:20:42;;;;;;;38.45;28.08;;;;;;;5.21;100.00;99813.59;4877382;29;20097;-72
2023/12/31 05:23:08;;;;;;;39.08;27.92;;;;;;;5.17;100.00;99810.38;4876411;29;20068;-72
2023/12/31 05:25:33;;;;;;;41.83;28.65;;;;;;;5.21;100.00;99819.66;4875982;29;20140;-72
2023/12/31 05:27:58;;;;;;;36.70;26.73;;;;;;;5.18;100.00;99830.34;4874202;29;20064;-72
2023/12/31 05:30:24;;;;;;;40.58;27.95;;;;;;;5.16;100.00;99821.75;4876330;29;20588;-72
2023/12/31 05:32:50;;;;;;;38.83;28.58;;;;;;;5.18;100.00;99812.03;4876366;29;20116;-71
2023/12/31 05:35:15;;;;;;;47.38;30.13;;;;;;;5.18;100.00;99798.97;4875835;29;20040;-72
2023/12/31 05:37:41;;;;;;;46.58;31.48;;;;;;;5.10;100.00;99793.41;4876265;29;20039;-72
2023/12/31 05:40:06;;;;;;;49.35;31.58;;;;;;;5.04;100.00;99796.41;4876346;29;20037;-72
2023/12/31 05:42:32;;;;;;;51.70;32.28;;;;;;;5.00;100.00;99794.97;4876053;29;20033;-72
2023/12/31 05:44:57;;;;;;;46.05;31.20;;;;;;;4.96;100.00;99798.69;4876185;29;20036;-72
2023/12/31 05:47:23;;;;;;;45.72;32.25;;;;;;;4.93;100.00;99791.06;4872385;29;20048;-71
2023/12/31 05:49:48;;;;;;;48.40;31.02;;;;;;;4.95;100.00;99787.38;4875758;29;20376;-72
2023/12/31 05:52:13;;;;;;;49.70;32.50;;;;;;;4.99;100.00;99795.88;4875613;29;20056;-71
2023/12/31 05:54:42;;;;;;;46.97;31.95;;;;;;;5.00;100.00;99789.72;4876082;29;20048;-71
2023/12/31 05:57:07;;;;;;;45.95;29.65;;;;;;;4.98;100.00;99796.81;4875882;29;20530;-71
2023/12/31 05:59:34;;;;;;;41.45;29.35;;;;;;;4.94;100.00;99796.19;4876046;29;20120;-71
2023/12/31 06:01:59;;;;;;;44.35;30.77;;;;;;;4.92;100.00;99797.22;4876130;29;20096;-71
2023/12/31 06:04:25;;;;;;;46.47;30.58;;;;;;;4.94;100.00;99784.91;4874658;29;20041;-71
2023/12/31 06:06:50;;;;;;;46.47;32.50;;;;;;;4.95;100.00;99791.78;4874792;29;20041;-70
2023/12/31 06:09:16;;;;;;;40.20;29.25;;;;;;;4.99;100.00;99785.44;4875517;29;20085;-72
2023/12/31 06:11:41;;;;;;;43.38;29.88;;;;;;;5.05;100.00;99786.78;4875982;29;20060;-72
2023/12/31 06:14:07;;;;;;;42.13;29.17;;;;;;;5.11;100.00;99787.22;4875799;29;20065;-71
2023/12/31 06:16:32;;;;;;;43.25;30.63;;;;;;;5.16;100.00;99790.38;4876091;29;20033;-72
2023/12/31 06:18:58;;;;;;;45.53;30.50;;;;;;;5.20;100.00;99794.44;4876216;29;20475;-70
2023/12/31 06:21:24;;;;;;;41.45;29.00;;;;;;;5.20;100.00;99791.84;4875147;29;20048;-72
2023/12/31 06:23:49;;;;;;;43.00;29.33;;;;;;;5.26;100.00;99791.41;4871846;29;20042;-72
2023/12/31 06:26:15;;;;;;;41.90;29.67;;;;;;;5.29;100.00;99791.22;4874350;29;20036;-72
2023/12/31 06:28:40;;;;;;;40.78;28.20;;;;;;;5.31;100.00;99794.56;4875671;29;20048;-72
2023/12/31 06:31:05;;;;;;;41.28;28.15;;;;;;;5.35;100.00;99785.59;4875398;29;20041;-72
2023/12/31 06:33:31;;;;;;;45.28;29.42;;;;;;;5.39;100.00;99790.59;4875153;29;20101;-70
2023/12/31 06:35:56;;;;;;;43.92;30.33;;;;;;;5.43;100.00;99794.66;4875383;29;20149;-71
2023/12/31 06:38:22;;;;;;;39.63;28.75;;;;;;;5.46;100.00;99787.47;4874554;29;20177;-72
2023/12/31 06:40:47;;;;;;;40.10;29.10;;;;;;;5.47;100.00;99788.28;4873891;29;20439;-71
2023/12/31 06:43:12;;;;;;;39.10;28.15;;;;;;;5.38;100.00;99778.44;4872354;29;20065;-72
2023/12/31 06:45:38;;;;;;;42.67;29.30;;;;;;;5.30;100.00;99776.38;4875523;29;20121;-71
2023/12/31 06:48:04;;;;;;;44.08;29.33;;;;;;;5.29;100.00;99774.69;4875542;29;20037;-71
2023/12/31 06:50:29;;;;;;;41.72;29.25;;;;;;;5.31;100.00;99778.84;4875059;29;20048;-70
2023/12/31 06:52:54;;;;;;;43.22;28.33;;;;;;;5.34;100.00;99769.97;4875142;29;20064;-71
2023/12/31 06:55:20;;;;;;;41.38;27.15;;;;;;;5.28;100.00;99762.53;4875214;29;20332;-72
2023/12/31 06:57:47;;;;;;;37.28;27.73;;;;;;;5.31;100.00;99768.38;4874675;29;20052;-72
2023/12/31 07:00:13;;;;;;;37.00;26.20;;;;;;;5.31;100.00;99776.25;4875119;29;20044;-71
2023/12/31 07:02:38;;;;;;;41.95;26.55;;;;;;;5.25;100.00;99768.81;4871449;29;20115;-71
2023/12/31 07:05:04;;;;;;;39.20;27.83;;;;;;;5.35;100.00;99764.66;4874449;29;20083;-71
2023/12/31 07:07:30;;;;;;;35.00;27.52;;;;;;;5.43;100.00;99760.63;4874588;29;20049;-72
2023/12/31 07:09:55;;;;;;;37.80;26.67;;;;;;;5.46;100.00;99770.91;4875378;29;20029;-71
2023/12/31 07:12:21;;;;;;;35.42;26.55;;;;;;;5.45;100.00;99757.00;4877201;29;20120;-71
2023/12/31 07:14:46;;;;;;;40.05;27.88;;;;;;;5.47;100.00;99752.50;4875079;29;20092;-72
2023/12/31 07:17:12;;;;;;;38.25;26.95;;;;;;;5.49;100.00;99744.50;4875006;29;20069;-72
2023/12/31 07:19:39;;;;;;;39.58;26.88;;;;;;;5.45;100.00;99748.28;4875141;29;20033;-72
2023/12/31 07:22:04;;;;;;;38.92;27.23;;;;;;;5.43;100.00;99755.41;4872901;29;20376;-71
2023/12/31 07:24:32;;;;;;;38.65;28.13;;;;;;;5.36;100.00;99758.44;4874055;29;20056;-72
2023/12/31 07:26:58;;;;;;;34.75;26.63;;;;;;;5.39;100.00;99761.81;4874851;29;20060;-71
2023/12/31 07:29:23;;;;;;;36.60;26.42;;;;;;;5.35;100.00;99748.94;4874292;29;20037;-72
2023/12/31 07:31:49;;;;;;;39.15;27.77;;;;;;;5.30;100.00;99758.06;4875694;29;20036;-71
2023/12/31 07:34:15;;;;;;;40.03;28.02;;;;;;;5.25;100.00;99766.19;4880078;29;20372;-72
2023/12/31 07:36:41;;;;;;;39.03;27.42;;;;;;;5.20;100.00;99770.91;4874953;29;20033;-72
2023/12/31 07:39:06;;;;;;;37.28;27.95;;;;;;;5.14;100.00;99770.47;4874543;29;20037;-70
2023/12/31 07:41:32;;;;;;;41.67;28.20;;;;;;;5.15;100.00;99762.53;4873114;29;20609;-71
2023/12/31 07:43:58;;;;;;;38.47;27.45;;;;;;;5.16;100.00;99758.97;4874851;29;20029;-72
2023/12/31 07:46:24;;;;;;;35.53;27.33;;;;;;;5.17;100.00;99758.03;4889245;29;20393;-72
2023/12/31 07:48:51;;;;;;;37.65;27.33;;;;;;;5.21;100.00;99764.72;4875037;29;20048;-72
2023/12/31 07:51:17;;;;;;;39.35;26.83;;;;;;;5.28;100.00;99763.38;4878477;29;20044;-72
2023/12/31 07:53:42;;;;;;;38.35;27.90;;;;;;;5.36;100.00;99762.84;4878841;29;20025;-72
2023/12/31 07:56:08;;;;;;;36.80;26.48;;;;;;;5.42;100.00;99759.00;4878164;29;20517;-73
2023/12/31 07:58:34;;;;;;;33.28;25.42;;;;;;;5.43;100.00;99755.41;4875839;29;20092;-71
2023/12/31 08:01:02;;;;;;;35.10;26.92;;;;;;;5.43;100.00;99755.41;4891823;29;20041;-72
2023/12/31 08:03:28;;;;;;;34.53;26.25;;;;;;;5.41;100.00;99752.06;4877679;29;20116;-73
2023/12/31 08:05:54;;;;;;;37.45;26.73;;;;;;;5.29;100.00;99759.00;4877971;29;20044;-71
2023/12/31 08:08:20;;;;;;;34.40;25.73;;;;;;;5.36;100.00;99734.88;4877957;29;20037;-73
2023/12/31 08:10:45;;;;;;;37.95;26.63;;;;;;;5.44;100.00;99736.16;4877940;29;20044;-73
2023/12/31 08:13:11;;;;;;;35.72;26.92;;;;;;;5.47;100.00;99735.97;4877622;29;20056;-71
2023/12/31 08:15:37;;;;;;;34.92;25.80;;;;;;;5.52;100.00;99731.22;4878125;29;20025;-71
2023/12/31 08:18:04;;;;;;;37.65;26.27;;;;;;;5.51;100.00;99742.63;4878141;29;20040;-72
2023/12/31 08:20:30;;;;;;;37.20;27.23;;;;;;;5.44;100.00;99736.16;4874239;29;20440;-72
2023/12/31 08:22:56;;;;;;;36.05;26.08;;;;;;;5.36;100.00;99737.50;4873061;29;20148;-73
2023/12/31 08:25:21;;;;;;;36.95;26.95;;;;;;;5.32;100.00;99732.59;4877230;29;20076;-72
2023/12/31 08:27:47;;;;;;;37.42;27.55;;;;;;;5.29;100.00;99723.19;4877167;29;20041;-72
2023/12/31 08:30:12;;;;;;;39.13;27.77;;;;;;;5.30;100.00;99727.47;4877494;29;20033;-72
2023/12/31 08:32:38;;;;;;;34.90;25.85;;;;;;;5.28;100.00;99726.75;4877666;29;20053;-72
2023/12/31 08:35:05;;;;;;;38.40;27.15;;;;;;;5.30;100.00;99719.63;4877300;29;20051;-72
2023/12/31 08:37:30;;;;;;;33.92;26.52;;;;;;;5.28;100.00;99721.53;4875563;29;20081;-72
2023/12/31 08:39:55;;;;;;;36.17;26.17;;;;;;;5.38;100.00;99726.09;4877687;29;20033;-73
2023/12/31 08:42:21;;;;;;;34.70;26.50;;;;;;;5.30;100.00;99719.63;4876416;29;20084;-73
2023/12/31 08:44:47;;;;;;;34.25;26.58;;;;;;;5.28;100.00;99725.91;4877562;29;20064;-73
2023/12/31 08:47:12;;;;;;;36.72;27.27;;;;;;;5.27;100.00;99725.06;4877232;29;20072;-72
2023/12/31 08:49:38;;;;;;;39.78;28.70;;;;;;;5.27;100.00;99730.31;4877306;29;20036;-74
2023/12/31 08:52:04;;;;;;;39.13;27.95;;;;;;;5.24;100.00;99730.50;4875618;29;20081;-73
2023/12/31 08:54:29;;;;;;;40.13;27.70;;;;;;;5.23;100.00;99736.69;4877139;29;20045;-73
2023/12/31 08:56:55;;;;;;;45.65;30.08;;;;;;;5.18;100.00;99738.78;4876830;29;20049;-72
2023/12/31 08:59:20;;;;;;;42.55;29.50;;;;;;;5.17;100.00;99744.13;4904485;23;20068;-79
2023/12/31 09:01:46;;;;;;;52.58;34.63;;;;;;;5.16;100.00;99743.28;4890941;29;20029;-82
2023/12/31 09:04:12;;;;;;;40.92;29.92;;;;;;;5.15;100.00;99752.06;4893121;29;20244;-83
2023/12/31 09:06:38;;;;;;;43.33;28.85;;;;;;;5.07;100.00;99743.88;4898936;29;20033;-84
2023/12/31 09:09:04;;;;;;;39.83;29.23;;;;;;;5.00;100.00;99745.25;4879119;29;20036;-82
2023/12/31 09:11:30;;;;;;;41.53;29.15;;;;;;;4.96;100.00;99756.84;4898047;29;20062;-87
2023/12/31 09:13:56;;;;;;;38.28;27.95;;;;;;;5.00;100.00;99763.56;4888459;29;20077;-82
2023/12/31 09:16:21;;;;;;;38.20;28.42;;;;;;;5.01;100.00;99770.44;4894040;29;20040;-82
2023/12/31 09:18:48;;;;;;;38.63;28.20;;;;;;;4.95;100.00;99769.09;4888506;29;20060;-82
2023/12/31 09:21:13;;;;;;;41.08;28.65;;;;;;;4.93;100.00;99759.69;4888917;29;20052;-83
2023/12/31 09:23:39;;;;;;;40.78;29.83;;;;;;;4.98;100.00;99749.75;4892245;29;20124;-82
2023/12/31 09:26:04;;;;;;;35.92;28.83;;;;;;;5.02;100.00;99751.22;4889206;29;20052;-81
2023/12/31 09:28:30;;;;;;;42.20;30.02;;;;;;;5.11;100.00;99755.84;4889426;29;20100;-78
2023/12/31 09:30:56;;;;;;;40.10;29.23;;;;;;;5.18;100.00;99764.97;4892873;29;20029;-82
2023/12/31 09:33:21;;;;;;;45.85;30.38;;;;;;;5.20;100.00;99759.59;4895682;29;20393;-83
2023/12/31 09:35:47;;;;;;;41.28;30.17;;;;;;;5.21;100.00;99754.28;4896013;29;20029;-86
2023/12/31 09:38:12;;;;;;;43.67;29.50;;;;;;;5.25;100.00;99753.09;4888680;29;20028;-86
2023/12/31 09:40:39;;;;;;;42.35;31.05;;;;;;;5.25;100.00;99747.03;4891443;29;20444;-85
2023/12/31 09:43:08;;;;;;;48.95;32.00;;;;;;;5.33;100.00;99740.34;4909024;29;20108;-84
2023/12/31 09:45:34;;;;;;;48.83;33.35;;;;;;;5.36;100.00;99745.34;4888049;29;20469;-85
2023/12/31 09:48:01;;;;;;;49.03;32.83;;;;;;;5.43;100.00;99739.72;4890252;29;20036;-84
2023/12/31 09:50:27;;;;;;;45.47;31.08;;;;;;;5.48;100.00;99727.16;4888986;29;20032;-86
2023/12/31 09:52:55;;;;;;;44.75;31.98;;;;;;;5.34;100.00;99731.56;4887584;29;20096;-85
2023/12/31 09:55:22;;;;;;;40.95;30.05;;;;;;;5.36;100.00;99734.88;4889712;29;20045;-85
2023/12/31 09:57:48;;;;;;;46.03;30.55;;;;;;;5.42;100.00;99735.44;4893187;29;20036;-85
2023/12/31 10:00:14;;;;;;;45.05;30.67;;;;;;;5.41;100.00;99741.63;4893514;29;20045;-86
2023/12/31 10:02:40;;;;;;;41.78;30.17;;;;;;;5.47;100.00;99741.19;4887621;29;20034;-85
2023/12/31 10:05:06;;;;;;;41.47;29.27;;;;;;;5.49;100.00;99734.03;4891571;29;20127;-86
2023/12/31 10:07:31;;;;;;;45.78;31.20;;;;;;;5.48;100.00;99732.41;4887528;29;20040;-86
2023/12/31 10:09:58;;;;;;;39.67;30.15;;;;;;;5.39;100.00;99722.56;4892012;29;20036;-85
2023/12/31 10:12:24;;;;;;;39.70;28.63;;;;;;;5.36;100.00;99716.56;4886233;29;20483;-85
2023/12/31 10:14:50;;;;;;;41.35;29.42;;;;;;;5.36;100.00;99711.34;4895866;29;20060;-86
2023/12/31 10:17:16;;;;;;;46.63;30.13;;;;;;;5.32;100.00;99706.44;4890230;29;20056;-86
2023/12/31 10:19:41;;;;;;;41.65;28.75;;;;;;;5.38;100.00;99699.94;4892752;29;20028;-86
2023/12/31 10:22:10;;;;;;;39.95;29.77;;;;;;;5.42;100.00;99696.19;4893067;29;20439;-85
2023/12/31 10:24:35;;;;;;;41.08;28.90;;;;;;;5.44;100.00;99678.56;4892566;29;20038;-85
2023/12/31 10:27:04;;;;;;;39.50;29.33;;;;;;;5.58;100.00;99675.84;4887578;29;20028;-84
2023/12/31 10:29:31;;;;;;;41.05;29.40;;;;;;;5.67;100.00;99669.94;4887626;29;20092;-85
2023/12/31 10:31:57;;;;;;;42.20;29.42;;;;;;;5.70;100.00;99670.56;4888885;29;20032;-85
2023/12/31 10:34:22;;;;;;;43.08;29.83;;;;;;;5.77;100.00;99665.75;4886812;29;20410;-85
2023/12/31 10:36:48;;;;;;;41.72;28.73;;;;;;;5.78;100.00;99651.66;4888805;29;20032;-84
2023/12/31 10:39:27;;;;;;;40.53;28.65;;;;;;;5.70;100.00;99649.63;4890702;29;20123;-85
2023/12/31 10:42:05;;;;;;;41.30;28.42;;;;;;;5.78;100.00;99646.44;4889574;29;20055;-84
2023/12/31 10:44:37;;;;;;;44.60;29.38;;;;;;;5.74;100.00;99645.84;4890981;29;20059;-85
2023/12/31 10:47:05;;;;;;;45.97;30.75;;;;;;;5.74;100.00;99640.59;4889337;29;20029;-84
2023/12/31 10:49:32;;;;;;;46.00;29.75;;;;;;;5.80;100.00;99639.31;4886920;29;20079;-86
2023/12/31 10:52:03;;;;;;;50.10;31.02;;;;;;;5.79;100.00;99640.25;4890995;29;20044;-85
2023/12/31 10:54:43;;;;;;;39.70;29.75;;;;;;;5.81;100.00;99634.91;4891147;29;20459;-86
2023/12/31 10:57:09;;;;;;;45.75;29.77;;;;;;;5.83;100.00;99623.41;4888755;29;20036;-84
2023/12/31 10:59:36;;;;;;;40.80;30.65;;;;;;;5.79;100.00;99616.69;4889499;29;20049;-85
2023/12/31 11:02:04;;;;;;;43.25;30.33;;;;;;;5.85;100.00;99595.31;4888739;29;20071;-85
2023/12/31 11:04:30;;;;;;;46.03;32.53;;;;;;;5.91;100.00;99594.88;4891130;29;20052;-86
2023/12/31 11:06:56;;;;;;;47.10;31.80;;;;;;;5.99;100.00;99579.44;4889763;29;20044;-85
2023/12/31 11:09:22;;;;;;;52.50;31.60;;;;;;;6.03;100.00;99573.03;4888104;29;20036;-86
2023/12/31 11:11:50;;;;;;;53.78;32.58;;;;;;;6.05;100.00;99579.00;4890205;29;20032;-85